Time;durP1;ratioP1;P1;durP2;ratioP2;P2;SDS_P1;SDS_P2;PMS_P1;PMS_P2;Temp;Humidity;BMP_temperature;BMP_pressure;BME280_temperature;BME280_humidity;BME280_pressure;Samples;Min_cycle;Max_cycle;Signal;HPM_P1;HPM_P2
2022/04/05 00:01:27;;;;;;;5.47;3.50;;;6.30;99.90;;;;;;4996782;28;20319;-83
2022/04/05 00:03:53;;;;;;;4.57;3.60;;;6.30;99.90;;;;;;4995845;28;20508;-83
2022/04/05 00:06:19;;;;;;;5.03;3.83;;;6.30;99.90;;;;;;4995565;28;20610;-83
2022/04/05 00:08:44;;;;;;;5.33;3.60;;;6.30;99.90;;;;;;4996839;28;20230;-83
2022/04/05 00:11:10;;;;;;;3.83;3.43;;;6.30;99.90;;;;;;4996017;28;20191;-84
2022/04/05 00:13:36;;;;;;;4.63;3.43;;;6.30;99.90;;;;;;4996336;28;20184;-83
2022/04/05 00:16:01;;;;;;;3.70;2.83;;;6.30;99.90;;;;;;4996708;28;20291;-83
2022/04/05 00:18:27;;;;;;;4.03;2.77;;;6.30;99.90;;;;;;4996714;28;20244;-83
2022/04/05 00:20:53;;;;;;;3.50;2.97;;;6.30;99.90;;;;;;4995317;28;20596;-84
2022/04/05 00:23:19;;;;;;;4.27;2.70;;;6.30;99.90;;;;;;4995341;28;20179;-83
2022/04/05 00:25:44;;;;;;;3.80;2.97;;;6.30;99.90;;;;;;4995351;28;20203;-84
2022/04/05 00:28:10;;;;;;;3.20;2.90;;;6.30;99.90;;;;;;4996194;28;20179;-84
2022/04/05 00:30:36;;;;;;;3.40;2.33;;;6.30;99.90;;;;;;4995320;28;20592;-84
2022/04/05 00:33:01;;;;;;;6.43;2.30;;;6.30;99.90;;;;;;4995240;28;20274;-84
2022/04/05 00:35:27;;;;;;;3.33;2.47;;;6.30;99.90;;;;;;4995337;28;20493;-83
2022/04/05 00:37:52;;;;;;;3.60;2.77;;;6.40;99.90;;;;;;4994975;28;20219;-84
2022/04/05 00:40:18;;;;;;;3.80;3.00;;;6.40;99.90;;;;;;4995012;28;20220;-83
2022/04/05 00:42:44;;;;;;;3.73;3.20;;;6.30;99.90;;;;;;4994673;28;20242;-83
2022/04/05 00:45:09;;;;;;;3.87;3.17;;;6.30;99.90;;;;;;4994617;28;20207;-83
2022/04/05 00:47:36;;;;;;;5.53;3.80;;;6.30;99.90;;;;;;4994169;28;20191;-84
2022/04/05 00:50:04;;;;;;;5.50;3.60;;;6.30;99.90;;;;;;4996049;28;20172;-83
2022/04/05 00:52:29;;;;;;;4.53;3.77;;;6.20;99.90;;;;;;4995973;28;20176;-83
2022/04/05 00:54:58;;;;;;;5.13;3.90;;;6.20;99.90;;;;;;4996229;28;20501;-84
2022/04/05 00:57:24;;;;;;;5.50;3.80;;;6.30;99.90;;;;;;4994431;28;20303;-83
2022/04/05 00:59:55;;;;;;;4.67;3.73;;;6.30;99.90;;;;;;4995396;28;20175;-84
2022/04/05 01:02:22;;;;;;;5.83;4.17;;;6.30;99.90;;;;;;4995949;28;20172;-84
2022/04/05 01:04:49;;;;;;;5.70;3.93;;;6.30;99.90;;;;;;4994564;28;20176;-83
2022/04/05 01:07:16;;;;;;;4.20;3.80;;;6.40;99.90;;;;;;4994362;28;20187;-84
2022/04/05 01:09:43;;;;;;;4.53;3.77;;;6.30;99.90;;;;;;4994459;28;20615;-84
2022/04/05 01:12:11;;;;;;;4.63;3.50;;;6.30;99.90;;;;;;4993776;28;20184;-83
2022/04/05 01:14:39;;;;;;;4.43;3.80;;;6.30;99.90;;;;;;4994217;28;20191;-84
2022/04/05 01:17:06;;;;;;;4.47;4.07;;;6.30;99.90;;;;;;4995463;28;20227;-84
2022/04/05 01:19:32;;;;;;;6.40;4.27;;;6.30;99.90;;;;;;4994311;28;20226;-85
2022/04/05 01:21:58;;;;;;;5.57;4.70;;;6.30;99.90;;;;;;4995535;28;20629;-84
2022/04/05 01:24:24;;;;;;;4.83;4.40;;;6.30;99.90;;;;;;4994394;28;20180;-83
2022/04/05 01:26:51;;;;;;;6.23;5.37;;;6.30;99.90;;;;;;4995552;28;20187;-85
2022/04/05 01:29:19;;;;;;;6.20;5.60;;;6.30;99.90;;;;;;4993948;28;20183;-84
2022/04/05 01:32:05;;;;;;;6.50;5.43;;;6.30;99.90;;;;;;4994045;28;20234;-85
2022/04/05 01:34:34;;;;;;;9.13;6.30;;;6.30;99.90;;;;;;4994082;28;20180;-84
2022/04/05 01:37:02;;;;;;;7.83;7.03;;;6.30;99.90;;;;;;4993980;28;20254;-85
2022/04/05 01:39:30;;;;;;;6.67;5.17;;;6.40;99.90;;;;;;4995084;28;20176;-83
2022/04/05 01:42:04;;;;;;;6.60;4.93;;;6.40;99.90;;;;;;4993936;28;20274;-83
2022/04/05 01:44:31;;;;;;;5.43;3.77;;;6.50;99.90;;;;;;4993657;28;20311;-84
2022/04/05 01:46:57;;;;;;;4.03;3.63;;;6.50;99.90;;;;;;4995219;28;20677;-83
2022/04/05 01:49:23;;;;;;;4.17;3.13;;;6.40;99.90;;;;;;4994998;28;20180;-84
2022/04/05 01:51:49;;;;;;;5.03;3.70;;;6.40;99.90;;;;;;4994839;28;20222;-83
2022/04/05 01:54:17;;;;;;;4.33;3.13;;;6.40;99.90;;;;;;4993849;28;20209;-84
2022/04/05 01:56:52;;;;;;;4.93;3.10;;;6.40;99.90;;;;;;4994998;28;20231;-84
2022/04/05 01:59:26;;;;;;;5.47;3.70;;;6.30;99.90;;;;;;4992841;28;20634;-85
2022/04/05 02:01:52;;;;;;;3.30;2.90;;;6.30;99.90;;;;;;4993410;28;20775;-85
2022/04/05 02:04:18;;;;;;;4.27;3.37;;;6.30;99.90;;;;;;4994806;28;20216;-85
2022/04/05 02:06:44;;;;;;;3.73;3.30;;;6.30;99.90;;;;;;4995102;28;20199;-84
2022/04/05 02:09:14;;;;;;;4.80;3.60;;;6.30;99.90;;;;;;4993618;28;20501;-85
2022/04/05 02:11:46;;;;;;;6.17;3.63;;;6.20;99.90;;;;;;4993584;28;20269;-84
2022/04/05 02:14:13;;;;;;;6.93;4.00;;;6.20;99.90;;;;;;4993342;28;20184;-84
2022/04/05 02:16:39;;;;;;;4.47;3.30;;;6.30;99.90;;;;;;4994924;28;20207;-84
2022/04/05 02:19:04;;;;;;;5.60;3.80;;;6.30;99.90;;;;;;4993329;28;20191;-84
2022/04/05 02:21:30;;;;;;;4.30;3.33;;;6.30;99.90;;;;;;4993591;28;20283;-85
2022/04/05 02:23:56;;;;;;;4.67;3.00;;;6.30;99.90;;;;;;4994686;28;20219;-84
2022/04/05 02:26:21;;;;;;;4.13;3.23;;;6.20;99.90;;;;;;4994396;28;20239;-84
2022/04/05 02:28:48;;;;;;;4.43;3.67;;;6.20;99.90;;;;;;4993249;28;20669;-84
2022/04/05 02:31:14;;;;;;;4.20;3.60;;;6.20;99.90;;;;;;4993364;28;20176;-84
2022/04/05 02:33:40;;;;;;;3.50;3.10;;;6.20;99.90;;;;;;4993299;28;20681;-84
2022/04/05 02:36:06;;;;;;;3.50;3.20;;;6.20;99.90;;;;;;4993326;28;20234;-84
2022/04/05 02:38:31;;;;;;;5.27;3.33;;;6.20;99.90;;;;;;4994500;28;20172;-84
2022/04/05 02:40:57;;;;;;;3.97;3.37;;;6.20;99.90;;;;;;4994615;28;20191;-84
2022/04/05 02:43:24;;;;;;;4.03;3.23;;;6.20;99.90;;;;;;4994413;28;20599;-84
2022/04/05 02:45:50;;;;;;;3.63;3.27;;;6.20;99.90;;;;;;4993219;28;20176;-85
2022/04/05 02:48:16;;;;;;;5.43;3.30;;;6.20;99.90;;;;;;4993238;28;20494;-84
2022/04/05 02:50:41;;;;;;;5.50;3.50;;;6.20;99.90;;;;;;4993374;28;20184;-84
2022/04/05 02:53:07;;;;;;;4.20;3.27;;;6.20;99.90;;;;;;4993468;28;20242;-84
2022/04/05 02:55:33;;;;;;;5.77;2.97;;;6.20;99.90;;;;;;4994579;28;20628;-84
2022/04/05 02:57:58;;;;;;;3.93;2.80;;;6.20;99.90;;;;;;4994289;28;20180;-83
2022/04/05 03:00:24;;;;;;;4.87;3.13;;;6.30;99.90;;;;;;4992624;28;20215;-83
2022/04/05 03:02:50;;;;;;;2.70;2.50;;;6.30;99.90;;;;;;4992985;28;20176;-84
2022/04/05 03:05:18;;;;;;;3.20;2.60;;;6.40;99.90;;;;;;4994407;28;20175;-84
2022/04/05 03:07:43;;;;;;;4.57;2.93;;;6.30;99.90;;;;;;4993067;28;20555;-84
2022/04/05 03:10:10;;;;;;;3.53;3.10;;;6.30;99.90;;;;;;4993350;28;20176;-83
2022/04/05 03:12:37;;;;;;;4.23;2.93;;;6.30;99.90;;;;;;4996548;28;20645;-84
2022/04/05 03:15:06;;;;;;;3.63;2.87;;;6.30;99.90;;;;;;4996345;28;20486;-84
2022/04/05 03:17:32;;;;;;;3.80;2.97;;;6.20;99.90;;;;;;4996624;28;20192;-84
2022/04/05 03:19:59;;;;;;;3.13;2.70;;;6.20;99.90;;;;;;4996703;28;20175;-84
2022/04/05 03:22:25;;;;;;;4.13;3.17;;;6.20;99.90;;;;;;4997690;28;20513;-84
2022/04/05 03:24:51;;;;;;;4.33;2.83;;;6.30;99.90;;;;;;4996529;28;20176;-84
2022/04/05 03:27:16;;;;;;;4.40;2.80;;;6.40;99.90;;;;;;4997664;28;20183;-83
2022/04/05 03:29:42;;;;;;;5.00;3.37;;;6.30;99.90;;;;;;4997235;28;20199;-84
2022/04/05 03:32:09;;;;;;;3.83;2.60;;;6.20;99.90;;;;;;4996244;28;20506;-84
2022/04/05 03:34:35;;;;;;;7.20;2.47;;;6.20;99.90;;;;;;4997647;28;20179;-84
2022/04/05 03:37:00;;;;;;;3.30;2.40;;;6.20;99.90;;;;;;4996150;28;20299;-84
2022/04/05 03:39:26;;;;;;;4.70;2.37;;;6.30;99.90;;;;;;4996327;28;20211;-84
2022/04/05 03:41:52;;;;;;;5.03;1.70;;;6.30;99.90;;;;;;4996178;28;20183;-84
2022/04/05 03:44:17;;;;;;;5.90;1.43;;;6.30;99.90;;;;;;4995718;28;20176;-83
2022/04/05 03:46:43;;;;;;;4.93;1.67;;;6.40;99.90;;;;;;4997440;28;20168;-83
2022/04/05 03:49:09;;;;;;;5.83;1.60;;;6.40;99.90;;;;;;4996024;28;20206;-85
2022/04/05 03:51:34;;;;;;;4.60;1.70;;;6.30;99.90;;;;;;4997247;28;20180;-84
2022/04/05 03:54:00;;;;;;;5.47;1.70;;;6.30;99.90;;;;;;4997231;28;20217;-83
2022/04/05 03:56:26;;;;;;;7.03;2.10;;;6.30;99.90;;;;;;4997086;28;20204;-84
2022/04/05 03:58:51;;;;;;;6.10;1.63;;;6.20;99.90;;;;;;4995331;28;20176;-83
2022/04/05 04:01:17;;;;;;;4.50;1.37;;;6.20;99.90;;;;;;4996760;28;20235;-84
2022/04/05 04:03:43;;;;;;;5.07;1.43;;;6.20;99.90;;;;;;4995643;28;20615;-83
2022/04/05 04:06:09;;;;;;;5.67;1.53;;;6.20;99.90;;;;;;4996997;28;20179;-83
2022/04/05 04:08:35;;;;;;;5.83;1.37;;;6.10;99.90;;;;;;4996764;28;20549;-84
2022/04/05 04:11:01;;;;;;;6.87;1.90;;;6.10;99.90;;;;;;4995559;28;20208;-83
2022/04/05 04:13:27;;;;;;;6.27;1.80;;;6.00;99.90;;;;;;4995353;28;20250;-84
2022/04/05 04:15:53;;;;;;;6.27;1.63;;;5.90;99.90;;;;;;4995262;28;20208;-83
2022/04/05 04:18:19;;;;;;;6.70;1.57;;;6.00;99.90;;;;;;4996344;28;20186;-84
2022/04/05 04:20:44;;;;;;;6.77;1.57;;;5.90;99.90;;;;;;4996676;28;20176;-83
2022/04/05 04:23:11;;;;;;;6.80;1.57;;;5.90;99.90;;;;;;4995777;28;20215;-83
2022/04/05 04:25:37;;;;;;;10.10;1.53;;;5.90;99.90;;;;;;4996518;28;20164;-83
2022/04/05 04:28:06;;;;;;;8.90;2.13;;;5.90;99.90;;;;;;4996282;28;20172;-83
2022/04/05 04:30:37;;;;;;;10.17;1.50;;;5.90;99.90;;;;;;4996137;28;20182;-83
2022/04/05 04:33:04;;;;;;;8.40;1.90;;;5.90;99.90;;;;;;4995121;28;20208;-83
2022/04/05 04:35:30;;;;;;;8.20;1.73;;;5.90;99.90;;;;;;4996352;28;20203;-83
2022/04/05 04:37:56;;;;;;;7.40;1.70;;;5.90;99.90;;;;;;4996201;28;20259;-83
2022/04/05 04:40:22;;;;;;;10.17;1.90;;;5.80;99.90;;;;;;4994841;28;20263;-83
2022/04/05 04:42:48;;;;;;;10.13;1.97;;;5.80;99.90;;;;;;4996058;28;20188;-83
2022/04/05 04:45:14;;;;;;;10.53;1.70;;;5.80;99.90;;;;;;4994580;28;20211;-83
2022/04/05 04:47:40;;;;;;;5.93;1.30;;;5.80;99.90;;;;;;4995887;28;20508;-83
2022/04/05 04:50:08;;;;;;;5.57;1.50;;;5.80;99.90;;;;;;4996184;28;20176;-84
2022/04/05 04:52:34;;;;;;;3.37;1.00;;;5.70;99.90;;;;;;4995681;28;20201;-83
2022/04/05 04:55:00;;;;;;;8.00;1.30;;;5.60;99.90;;;;;;4995821;28;20311;-82
2022/04/05 04:57:26;;;;;;;5.30;1.07;;;5.50;99.90;;;;;;4994673;28;20219;-83
2022/04/05 04:59:52;;;;;;;5.00;1.07;;;5.50;99.90;;;;;;4995599;28;20172;-83
2022/04/05 05:02:22;;;;;;;5.77;1.37;;;5.40;99.90;;;;;;4994596;28;20261;-84
2022/04/05 05:04:48;;;;;;;3.23;1.10;;;5.30;99.90;;;;;;4995798;28;20172;-83
2022/04/05 05:07:14;;;;;;;4.83;1.40;;;5.30;99.90;;;;;;4995657;28;20697;-83
2022/04/05 05:09:40;;;;;;;10.27;1.27;;;5.30;99.90;;;;;;4995860;28;20251;-83
2022/04/05 05:12:07;;;;;;;6.70;1.50;;;5.30;99.90;;;;;;4994388;28;20270;-83
2022/04/05 05:14:33;;;;;;;5.47;1.00;;;5.30;99.90;;;;;;4994046;28;20233;-83
2022/04/05 05:16:58;;;;;;;6.77;1.30;;;5.30;99.90;;;;;;4994308;28;20685;-83
2022/04/05 05:19:24;;;;;;;4.77;1.23;;;5.30;99.90;;;;;;4994196;28;20200;-83
2022/04/05 05:21:50;;;;;;;9.23;1.20;;;5.30;99.90;;;;;;4995482;28;20184;-83
2022/04/05 05:24:15;;;;;;;5.17;0.97;;;5.30;99.90;;;;;;4994160;28;20543;-83
2022/04/05 05:26:41;;;;;;;8.20;1.47;;;5.20;99.90;;;;;;4994297;28;20176;-83
2022/04/05 05:29:06;;;;;;;4.97;1.20;;;5.30;99.90;;;;;;4993856;28;20190;-83
2022/04/05 05:31:32;;;;;;;8.77;1.57;;;5.30;99.90;;;;;;4995375;28;20207;-82
2022/04/05 05:33:58;;;;;;;5.23;1.33;;;5.30;99.90;;;;;;4995425;28;20262;-83
2022/04/05 05:36:23;;;;;;;8.03;1.40;;;5.30;99.90;;;;;;4995166;28;20204;-84
2022/04/05 05:38:49;;;;;;;8.77;1.40;;;5.30;99.90;;;;;;4993882;28;20180;-82
2022/04/05 05:41:15;;;;;;;7.30;1.13;;;5.40;99.90;;;;;;4994089;28;20203;-83
2022/04/05 05:43:45;;;;;;;6.20;1.33;;;5.40;99.90;;;;;;4993397;28;20184;-82
2022/04/05 05:46:11;;;;;;;5.23;1.33;;;5.40;99.90;;;;;;4993145;28;20207;-83
2022/04/05 05:48:37;;;;;;;6.83;1.10;;;5.40;99.90;;;;;;4992568;28;20215;-81
2022/04/05 05:51:02;;;;;;;7.20;1.37;;;5.40;99.90;;;;;;4991059;28;20278;-80
2022/04/05 05:53:28;;;;;;;5.93;1.23;;;5.40;99.90;;;;;;4986839;28;20686;-80
2022/04/05 05:55:54;;;;;;;8.97;1.37;;;5.50;99.90;;;;;;4993091;28;20245;-81
2022/04/05 05:58:19;;;;;;;9.27;1.60;;;5.40;99.90;;;;;;4992867;28;20626;-81
2022/04/05 06:00:45;;;;;;;6.73;1.50;;;5.50;99.90;;;;;;4992822;28;20693;-81
2022/04/05 06:03:11;;;;;;;13.33;1.63;;;5.50;99.90;;;;;;4993089;28;20634;-82
2022/04/05 06:05:37;;;;;;;8.07;1.40;;;5.50;99.90;;;;;;4993157;28;20611;-80
2022/04/05 06:08:04;;;;;;;8.30;1.73;;;5.60;99.90;;;;;;4993231;28;20237;-81
2022/04/05 06:10:30;;;;;;;8.97;1.93;;;5.60;99.90;;;;;;4993022;28;20230;-81
2022/04/05 06:12:56;;;;;;;10.53;1.57;;;5.60;99.90;;;;;;4993149;28;20239;-81
2022/04/05 06:15:23;;;;;;;7.57;1.60;;;5.60;99.90;;;;;;4992441;28;20461;-82
2022/04/05 06:17:49;;;;;;;8.87;1.73;;;5.70;99.90;;;;;;4993118;28;20211;-80
2022/04/05 06:20:16;;;;;;;7.73;1.80;;;5.70;99.90;;;;;;4993013;28;20585;-81
2022/04/05 06:22:47;;;;;;;9.67;1.37;;;5.70;99.90;;;;;;4992645;28;20207;-81
2022/04/05 06:25:16;;;;;;;6.83;1.70;;;5.80;99.90;;;;;;4992781;28;20573;-81
2022/04/05 06:27:42;;;;;;;11.97;1.70;;;5.80;99.90;;;;;;4991979;28;20176;-81
2022/04/05 06:30:09;;;;;;;7.97;1.80;;;5.80;99.90;;;;;;4992011;28;20183;-81
2022/04/05 06:32:35;;;;;;;6.57;1.70;;;5.90;99.90;;;;;;4992423;28;20190;-81
2022/04/05 06:35:05;;;;;;;8.53;1.60;;;5.90;99.90;;;;;;4993679;28;20579;-81
2022/04/05 06:37:31;;;;;;;11.67;1.53;;;6.00;99.90;;;;;;4992479;28;20244;-82
2022/04/05 06:39:56;;;;;;;13.43;1.60;;;5.90;99.90;;;;;;4994334;28;20576;-81
2022/04/05 06:42:23;;;;;;;9.43;1.23;;;6.00;99.90;;;;;;4994281;28;20187;-81
2022/04/05 06:44:48;;;;;;;10.37;1.50;;;6.00;99.90;;;;;;4993597;28;20176;-81
2022/04/05 06:47:14;;;;;;;5.20;1.47;;;6.10;99.90;;;;;;4996498;28;20169;-81
2022/04/05 06:49:40;;;;;;;10.10;1.80;;;6.20;99.90;;;;;;4997571;28;20175;-82
2022/04/05 06:52:06;;;;;;;6.73;1.50;;;6.20;99.90;;;;;;4995403;28;20278;-81
2022/04/05 06:54:31;;;;;;;9.53;1.77;;;6.20;99.90;;;;;;4995302;28;20180;-82
2022/04/05 06:56:57;;;;;;;9.33;1.77;;;6.30;99.90;;;;;;4995855;28;20278;-81
2022/04/05 06:59:22;;;;;;;11.07;1.87;;;6.40;99.90;;;;;;4996272;28;20275;-81
2022/04/05 07:01:48;;;;;;;10.73;1.57;;;6.40;99.90;;;;;;4995882;28;20242;-82
2022/04/05 07:04:14;;;;;;;7.87;1.60;;;6.40;99.90;;;;;;4997347;28;20199;-82
2022/04/05 07:06:39;;;;;;;10.93;2.00;;;6.40;99.90;;;;;;4996369;28;20184;-81
2022/04/05 07:09:07;;;;;;;6.70;1.97;;;6.50;99.90;;;;;;4997571;28;20182;-81
2022/04/05 07:11:32;;;;;;;9.30;1.93;;;6.60;99.90;;;;;;4995886;28;20581;-81
2022/04/05 07:13:58;;;;;;;10.13;2.10;;;6.60;99.90;;;;;;4997268;28;20262;-81
2022/04/05 07:16:23;;;;;;;12.27;2.23;;;6.70;99.90;;;;;;4995638;28;20553;-81
2022/04/05 07:18:49;;;;;;;9.23;1.73;;;6.70;99.90;;;;;;4996931;28;20651;-81
2022/04/05 07:21:15;;;;;;;11.00;2.07;;;6.80;99.90;;;;;;4995946;28;20626;-81
2022/04/05 07:23:44;;;;;;;10.07;1.40;;;6.70;99.90;;;;;;4996216;28;20180;-81
2022/04/05 07:26:11;;;;;;;7.37;1.70;;;6.70;99.90;;;;;;4997051;28;20263;-81
2022/04/05 07:28:36;;;;;;;7.23;1.90;;;6.90;99.90;;;;;;4996963;28;20642;-81
2022/04/05 07:31:03;;;;;;;10.03;1.90;;;6.70;99.90;;;;;;4995395;28;20274;-81
2022/04/05 07:33:29;;;;;;;12.43;2.37;;;6.80;99.90;;;;;;4995912;28;20194;-81
2022/04/05 07:35:54;;;;;;;6.10;1.70;;;6.90;99.90;;;;;;4996757;28;20215;-81
2022/04/05 07:38:20;;;;;;;10.83;2.30;;;7.00;99.90;;;;;;4995780;28;20223;-80
2022/04/05 07:40:49;;;;;;;9.03;1.90;;;6.90;99.90;;;;;;4996059;28;20254;-81
2022/04/05 07:43:17;;;;;;;7.10;2.00;;;7.00;99.90;;;;;;4996982;28;20239;-81
2022/04/05 07:45:44;;;;;;;8.10;1.83;;;7.00;99.90;;;;;;4995503;28;20191;-82
2022/04/05 07:48:10;;;;;;;9.07;1.60;;;7.00;99.90;;;;;;4995197;28;20179;-81
2022/04/05 07:50:36;;;;;;;12.77;2.23;;;7.00;99.90;;;;;;4994076;28;20180;-81
2022/04/05 07:53:02;;;;;;;9.90;1.93;;;7.20;99.90;;;;;;4995526;28;20190;-81
2022/04/05 07:55:28;;;;;;;14.73;2.23;;;7.20;99.90;;;;;;4995131;28;20179;-82
2022/04/05 07:57:54;;;;;;;9.73;2.17;;;7.30;99.90;;;;;;4994010;28;20180;-81
2022/04/05 08:00:22;;;;;;;11.33;2.20;;;7.40;99.90;;;;;;4995910;28;20230;-82
2022/04/05 08:02:47;;;;;;;11.63;1.87;;;7.40;99.90;;;;;;4995935;28;20211;-82
2022/04/05 08:05:14;;;;;;;10.83;2.00;;;7.40;99.90;;;;;;4996338;28;20218;-81
2022/04/05 08:07:40;;;;;;;7.03;1.83;;;7.50;99.90;;;;;;4996511;28;20159;-81
2022/04/05 08:10:06;;;;;;;8.70;1.97;;;7.60;99.90;;;;;;4996667;28;20184;-81
2022/04/05 08:12:41;;;;;;;8.17;1.50;;;7.60;99.90;;;;;;4996302;28;20311;-81
2022/04/05 08:15:07;;;;;;;7.80;1.43;;;7.80;99.90;;;;;;4994956;28;20274;-81
2022/04/05 08:17:33;;;;;;;8.33;1.70;;;7.80;99.90;;;;;;4994859;28;20208;-81
2022/04/05 08:19:58;;;;;;;7.93;2.00;;;7.70;99.90;;;;;;4994701;28;20194;-81
2022/04/05 08:22:24;;;;;;;7.73;2.00;;;7.70;99.90;;;;;;4994940;28;20223;-81
2022/04/05 08:24:49;;;;;;;13.07;1.90;;;7.70;99.90;;;;;;4996330;28;20195;-81
2022/04/05 08:27:15;;;;;;;8.80;1.70;;;7.70;99.90;;;;;;4994952;28;20176;-81
2022/04/05 08:29:41;;;;;;;12.17;1.93;;;7.70;99.90;;;;;;4996060;28;20245;-81
2022/04/05 08:32:07;;;;;;;8.43;1.63;;;7.70;99.90;;;;;;4994100;28;20180;-81
2022/04/05 08:34:33;;;;;;;11.90;1.77;;;7.80;99.90;;;;;;4995382;28;20206;-80
2022/04/05 08:36:59;;;;;;;16.67;2.00;;;7.80;99.90;;;;;;4995341;28;20646;-80
2022/04/05 08:39:27;;;;;;;9.47;1.80;;;7.80;99.90;;;;;;4995704;28;20168;-80
2022/04/05 08:41:55;;;;;;;8.17;1.77;;;7.90;99.90;;;;;;4995428;28;20176;-81
2022/04/05 08:44:22;;;;;;;13.43;2.17;;;7.90;99.90;;;;;;4992348;28;20544;-81
2022/04/05 08:46:50;;;;;;;10.80;2.03;;;7.90;99.90;;;;;;4994227;28;20219;-81
2022/04/05 08:49:15;;;;;;;10.17;1.73;;;7.90;99.90;;;;;;4995296;28;20180;-81
2022/04/05 08:51:41;;;;;;;13.43;1.90;;;7.90;99.90;;;;;;4995452;28;20202;-82
2022/04/05 08:54:07;;;;;;;14.93;2.40;;;7.80;99.90;;;;;;4994331;28;20206;-80
2022/04/05 08:56:33;;;;;;;10.13;1.30;;;7.70;99.90;;;;;;4995156;28;20242;-82
2022/04/05 08:58:59;;;;;;;14.07;2.20;;;7.70;99.90;;;;;;4995431;28;20611;-81
2022/04/05 09:01:29;;;;;;;11.53;2.17;;;7.80;99.90;;;;;;4993841;28;20231;-81
2022/04/05 09:03:56;;;;;;;14.03;2.50;;;7.80;99.90;;;;;;4994211;28;20184;-82
2022/04/05 09:06:30;;;;;;;12.57;2.20;;;7.90;99.90;;;;;;4994105;28;20587;-80
2022/04/05 09:09:09;;;;;;;10.63;1.87;;;7.80;99.90;;;;;;4994916;28;20215;-81
2022/04/05 09:11:36;;;;;;;7.40;2.00;;;7.80;99.90;;;;;;4994169;28;20184;-81
2022/04/05 09:14:04;;;;;;;10.40;2.30;;;7.70;99.90;;;;;;4993740;28;20651;-81
2022/04/05 09:16:32;;;;;;;12.50;2.07;;;7.70;99.90;;;;;;4995109;28;20646;-81
2022/04/05 09:18:59;;;;;;;11.67;2.60;;;7.80;99.90;;;;;;4995221;28;20164;-82
2022/04/05 09:21:25;;;;;;;11.17;2.37;;;7.90;99.90;;;;;;4994855;28;20172;-82
2022/04/05 09:23:52;;;;;;;11.73;2.10;;;8.00;99.90;;;;;;4993870;28;20625;-81
2022/04/05 09:26:19;;;;;;;7.83;1.97;;;8.10;99.90;;;;;;4993976;28;20199;-81
2022/04/05 09:28:47;;;;;;;8.97;2.37;;;8.30;99.90;;;;;;4993526;28;20216;-82
2022/04/05 09:31:18;;;;;;;10.90;2.30;;;8.40;99.90;;;;;;4994825;28;20218;-82
2022/04/05 09:34:13;;;;;;;6.80;1.97;;;8.50;99.90;;;;;;4994627;28;20219;-82
2022/04/05 09:36:42;;;;;;;10.20;2.10;;;8.60;99.90;;;;;;4993514;28;20229;-82
2022/04/05 09:39:19;;;;;;;13.23;2.57;;;8.60;99.90;;;;;;4993709;28;20167;-81
2022/04/05 09:41:46;;;;;;;8.23;2.10;;;8.70;99.90;;;;;;4993717;28;20207;-82
2022/04/05 09:44:22;;;;;;;9.00;2.10;;;8.60;99.90;;;;;;4995012;28;20238;-82
2022/04/05 09:46:52;;;;;;;10.20;2.00;;;8.50;99.90;;;;;;4994354;28;20634;-82
2022/04/05 09:49:18;;;;;;;12.20;2.53;;;8.30;99.90;;;;;;4992878;28;20216;-82
2022/04/05 09:51:45;;;;;;;13.07;2.50;;;8.30;99.90;;;;;;4993512;28;20172;-82
2022/04/05 09:54:28;;;;;;;8.63;2.17;;;8.30;99.90;;;;;;4994728;28;20262;-81
2022/04/05 09:57:08;;;;;;;7.63;2.13;;;8.30;99.90;;;;;;4994697;28;20230;-81
2022/04/05 09:59:41;;;;;;;8.07;2.63;;;8.20;99.90;;;;;;4993491;28;20222;-82
2022/04/05 10:02:13;;;;;;;7.77;1.87;;;8.30;99.90;;;;;;4993265;28;20231;-82
2022/04/05 10:05:02;;;;;;;10.60;2.17;;;8.30;99.90;;;;;;4993878;28;20180;-82
2022/04/05 10:07:30;;;;;;;12.17;2.37;;;8.40;99.90;;;;;;4991972;28;20573;-82
2022/04/05 10:09:58;;;;;;;13.10;2.83;;;8.30;99.90;;;;;;4994351;28;20200;-82
2022/04/05 10:12:24;;;;;;;8.90;2.50;;;8.40;99.90;;;;;;4993399;28;20200;-83
2022/04/05 10:14:50;;;;;;;14.47;2.10;;;8.40;99.90;;;;;;4993239;28;20226;-82
2022/04/05 10:17:17;;;;;;;9.40;2.50;;;8.40;99.90;;;;;;4993937;28;20239;-81
2022/04/05 10:19:48;;;;;;;10.83;2.13;;;8.40;99.90;;;;;;4994422;28;20179;-81
2022/04/05 10:22:16;;;;;;;11.67;2.53;;;8.40;99.90;;;;;;4996535;28;20198;-81
2022/04/05 10:24:42;;;;;;;11.10;2.43;;;8.40;99.90;;;;;;4997680;28;20196;-82
2022/04/05 10:27:09;;;;;;;10.87;2.47;;;8.50;99.90;;;;;;4997073;28;20206;-82
2022/04/05 10:29:35;;;;;;;13.33;2.10;;;8.60;99.90;;;;;;4997781;28;20195;-82
2022/04/05 10:32:25;;;;;;;14.13;2.40;;;8.80;99.90;;;;;;4996487;28;20184;-81
2022/04/05 10:35:01;;;;;;;7.63;2.17;;;8.90;99.90;;;;;;4997002;28;20195;-81
2022/04/05 10:37:33;;;;;;;9.43;1.97;;;9.00;99.90;;;;;;4997051;28;20223;-82
2022/04/05 10:39:59;;;;;;;11.73;2.40;;;9.10;99.90;;;;;;4996100;28;20312;-82
2022/04/05 10:42:33;;;;;;;9.60;1.80;;;9.10;99.90;;;;;;4996525;28;20552;-82
2022/04/05 10:45:20;;;;;;;9.27;2.43;;;9.20;99.90;;;;;;4995554;28;20640;-82
2022/04/05 10:48:11;;;;;;;8.33;1.80;;;9.20;99.90;;;;;;4997017;28;20183;-83
2022/04/05 10:50:38;;;;;;;5.63;1.50;;;9.10;99.90;;;;;;4996407;28;20187;-82
2022/04/05 10:53:17;;;;;;;5.73;1.30;;;8.90;99.90;;;;;;4996103;28;20557;-82
2022/04/05 10:56:08;;;;;;;10.00;1.53;;;8.70;99.90;;;;;;4997510;28;20211;-82
2022/04/05 10:58:35;;;;;;;10.33;1.63;;;8.70;99.90;;;;;;4997815;28;20211;-81
2022/04/05 11:01:39;;;;;;;5.73;1.60;;;8.70;99.90;;;;;;4997318;28;20228;-82
2022/04/05 11:07:03;;;;;;;8.00;1.53;;;8.70;99.90;;;;;;4997932;28;20629;-82
2022/04/05 11:09:41;;;;;;;8.60;1.90;;;8.60;99.90;;;;;;4995934;28;20520;-81
2022/04/05 11:12:12;;;;;;;12.13;2.50;;;8.60;99.90;;;;;;4997357;28;20237;-82
2022/04/05 11:14:50;;;;;;;5.43;1.47;;;8.50;99.90;;;;;;4996327;28;20630;-81
2022/04/05 11:17:18;;;;;;;9.03;1.60;;;8.50;99.90;;;;;;4996320;28;20695;-81
2022/04/05 11:19:46;;;;;;;8.00;2.00;;;8.50;99.90;;;;;;4996366;28;20607;-81
2022/04/05 11:22:21;;;;;;;12.33;1.80;;;8.40;99.90;;;;;;4995342;28;20291;-81
2022/04/05 11:24:54;;;;;;;8.67;1.97;;;8.40;99.90;;;;;;4997334;28;20250;-81
2022/04/05 11:27:34;;;;;;;8.83;1.90;;;8.40;99.90;;;;;;4997292;28;20488;-81
2022/04/05 11:30:37;;;;;;;10.07;1.87;;;8.40;99.90;;;;;;4995739;28;20200;-81
2022/04/05 11:33:14;;;;;;;4.67;1.67;;;8.40;99.90;;;;;;4995541;28;20186;-82
2022/04/05 11:35:44;;;;;;;5.93;2.07;;;8.40;99.90;;;;;;4994654;28;20188;-81
2022/04/05 11:38:18;;;;;;;7.47;1.73;;;8.40;99.90;;;;;;4997042;28;20186;-82
2022/04/05 11:40:50;;;;;;;7.80;1.97;;;8.50;99.90;;;;;;4995786;28;20238;-82
2022/04/05 11:43:19;;;;;;;7.60;2.13;;;8.50;99.90;;;;;;4995531;28;20192;-82
2022/04/05 11:45:49;;;;;;;9.30;2.00;;;8.50;99.90;;;;;;4996227;28;20182;-81
2022/04/05 11:48:16;;;;;;;14.57;2.73;;;8.60;99.90;;;;;;4996839;28;20282;-82
2022/04/05 11:50:42;;;;;;;9.90;2.10;;;8.60;99.90;;;;;;4995553;28;20179;-81
2022/04/05 11:53:18;;;;;;;9.00;2.20;;;8.60;99.90;;;;;;4995681;28;20234;-81
2022/04/05 11:56:01;;;;;;;7.23;2.70;;;8.50;99.90;;;;;;4994750;28;20164;-81
2022/04/05 11:58:28;;;;;;;14.13;4.03;;;8.40;99.90;;;;;;4992645;28;20196;-80
2022/04/05 12:00:54;;;;;;;9.33;3.73;;;8.40;99.90;;;;;;4986594;28;20546;-82
2022/04/05 12:03:20;;;;;;;9.10;4.07;;;8.40;99.90;;;;;;4995806;28;20207;-83
2022/04/05 12:05:46;;;;;;;9.63;4.90;;;8.30;99.90;;;;;;4996336;28;20180;-83
2022/04/05 12:08:14;;;;;;;11.33;5.33;;;8.20;99.90;;;;;;4996345;28;20187;-82
2022/04/05 12:10:41;;;;;;;13.40;6.20;;;8.10;99.90;;;;;;4996575;28;20160;-82
2022/04/05 12:13:07;;;;;;;13.77;5.57;;;8.10;99.90;;;;;;4996447;28;20188;-82
2022/04/05 12:15:34;;;;;;;13.27;5.13;;;8.00;99.90;;;;;;4996202;28;20559;-82
2022/04/05 12:18:22;;;;;;;14.07;4.93;;;8.00;99.90;;;;;;4995522;28;20493;-82
2022/04/05 12:20:58;;;;;;;11.43;5.07;;;8.00;99.90;;;;;;4994773;28;20199;-82
2022/04/05 12:23:29;;;;;;;12.40;5.53;;;8.00;99.90;;;;;;4994671;28;20215;-82
2022/04/05 12:26:13;;;;;;;9.53;5.07;;;8.00;99.90;;;;;;4996410;28;20247;-82
2022/04/05 12:28:53;;;;;;;10.00;4.80;;;8.00;99.90;;;;;;4994982;28;20171;-82
2022/04/05 12:31:26;;;;;;;12.70;4.93;;;8.00;99.90;;;;;;4993758;28;20238;-82
2022/04/05 12:34:01;;;;;;;9.77;5.07;;;8.20;99.90;;;;;;4996199;28;20292;-82
2022/04/05 12:37:00;;;;;;;11.17;4.70;;;8.30;99.90;;;;;;4996045;28;20195;-82
2022/04/05 12:39:29;;;;;;;10.67;4.97;;;8.30;99.90;;;;;;4991425;28;20195;-82
2022/04/05 12:42:06;;;;;;;10.30;5.03;;;8.40;99.90;;;;;;4994416;28;20436;-82
2022/04/05 12:44:38;;;;;;;8.93;4.70;;;8.40;99.90;;;;;;4990847;28;20583;-83
2022/04/05 12:47:07;;;;;;;10.67;4.80;;;8.60;99.90;;;;;;4974990;28;20208;-83
2022/04/05 12:49:39;;;;;;;6.83;4.70;;;8.60;99.90;;;;;;4976571;28;20251;-82
2022/04/05 12:52:09;;;;;;;7.40;5.30;;;8.50;99.90;;;;;;4974985;28;20184;-82
2022/04/05 12:54:38;;;;;;;7.60;4.80;;;8.40;99.90;;;;;;4975178;28;20184;-81
2022/04/05 12:57:31;;;;;;;8.27;5.20;;;8.40;99.90;;;;;;4977363;28;20211;-81
2022/04/05 13:00:16;;;;;;;8.33;4.77;;;8.30;99.90;;;;;;4993449;28;20230;-82
2022/04/05 13:03:00;;;;;;;6.10;4.60;;;8.40;99.90;;;;;;4994847;28;20172;-82
2022/04/05 13:08:26;;;;;;;7.33;4.73;;;8.50;99.90;;;;;;4995469;28;20171;-82